Time;durP1;ratioP1;P1;durP2;ratioP2;P2;SDS_P1;SDS_P2;PMS_P1;PMS_P2;Temp;Humidity;BMP_temperature;BMP_pressure;BME280_temperature;BME280_humidity;BME280_pressure;Samples;Min_cycle;Max_cycle;Signal;HPM_P1;HPM_P2
2023/08/05 00:00:56;;;;;;;9.82;8.35;;;;;;;29.90;41.03;100127.03;5025019;28;20398;-75
2023/08/05 00:03:22;;;;;;;10.40;8.57;;;;;;;29.72;41.55;100137.84;5047400;28;20419;-75
2023/08/05 00:05:47;;;;;;;9.07;8.17;;;;;;;29.51;41.93;100139.47;5051530;28;20381;-75
2023/08/05 00:08:13;;;;;;;10.38;8.50;;;;;;;29.44;42.25;100139.09;5052434;28;20427;-75
2023/08/05 00:10:42;;;;;;;9.95;8.48;;;;;;;29.34;42.36;100127.31;5053188;28;20394;-75
2023/08/05 00:13:08;;;;;;;9.55;8.57;;;;;;;29.40;42.07;100129.94;5052085;28;20385;-75
2023/08/05 00:15:33;;;;;;;9.57;8.57;;;;;;;29.39;42.17;100125.56;5053668;28;20822;-75
2023/08/05 00:17:59;;;;;;;10.60;8.27;;;;;;;29.38;42.28;100121.25;5053492;28;20384;-75
2023/08/05 00:20:24;;;;;;;9.57;8.67;;;;;;;29.33;42.71;100123.00;5053493;28;20441;-75
2023/08/05 00:22:50;;;;;;;13.43;8.30;;;;;;;29.26;42.86;100127.25;5054497;28;20383;-75
2023/08/05 00:25:15;;;;;;;10.45;8.50;;;;;;;29.19;43.20;100124.16;5053520;28;20411;-76
2023/08/05 00:27:41;;;;;;;9.75;8.30;;;;;;;29.12;43.52;100124.56;5053375;28;20407;-75
2023/08/05 00:30:07;;;;;;;10.20;8.57;;;;;;;29.13;43.48;100121.50;5053024;28;20424;-75
2023/08/05 00:32:36;;;;;;;12.30;8.25;;;;;;;29.17;43.47;100129.91;5052846;28;20399;-76
2023/08/05 00:35:02;;;;;;;9.27;8.37;;;;;;;29.21;43.42;100124.66;5053283;28;20400;-76
2023/08/05 00:37:27;;;;;;;9.00;7.75;;;;;;;29.22;43.44;100118.06;5053252;28;20380;-75
2023/08/05 00:39:53;;;;;;;11.63;8.63;;;;;;;29.26;43.45;100124.53;5053211;28;20412;-75
2023/08/05 00:42:19;;;;;;;8.83;7.27;;;;;;;29.16;43.88;100120.94;5053150;28;20789;-75
2023/08/05 00:44:45;;;;;;;8.57;7.67;;;;;;;29.09;43.90;100117.78;5053175;28;20468;-75
2023/08/05 00:47:10;;;;;;;8.32;7.20;;;;;;;29.07;43.86;100114.56;5052751;28;20380;-75
2023/08/05 00:49:37;;;;;;;10.77;7.47;;;;;;;28.98;43.93;100109.03;5053012;28;20438;-75
2023/08/05 00:52:04;;;;;;;8.20;7.40;;;;;;;29.05;44.00;100110.53;5053144;28;20411;-75
2023/08/05 00:54:30;;;;;;;10.82;6.72;;;;;;;28.90;44.30;100111.69;5052840;28;20419;-75
2023/08/05 00:56:56;;;;;;;9.67;6.60;;;;;;;28.86;44.41;100119.69;5052452;28;20384;-75
2023/08/05 00:59:21;;;;;;;9.77;6.60;;;;;;;28.84;43.95;100123.84;5051615;28;20372;-75
2023/08/05 01:01:46;;;;;;;7.10;6.40;;;;;;;28.80;43.76;100129.09;5052799;28;20379;-75
2023/08/05 01:04:12;;;;;;;7.18;5.95;;;;;;;28.81;43.88;100133.47;5052683;28;20434;-75
2023/08/05 01:06:38;;;;;;;7.68;6.22;;;;;;;28.80;43.75;100126.38;5052597;28;20470;-75
2023/08/05 01:09:03;;;;;;;7.37;6.03;;;;;;;28.91;43.49;100126.94;5052359;28;20377;-75
2023/08/05 01:11:29;;;;;;;7.88;6.13;;;;;;;28.95;43.41;100126.00;5052850;28;20364;-75
2023/08/05 01:13:54;;;;;;;7.30;6.43;;;;;;;28.88;43.34;100125.66;5052499;28;20481;-74
2023/08/05 01:16:20;;;;;;;10.73;6.37;;;;;;;28.84;43.58;100121.13;5052121;28;20373;-75
2023/08/05 01:18:46;;;;;;;9.00;5.87;;;;;;;28.85;43.42;100114.56;5052524;28;20373;-75
2023/08/05 01:21:32;;;;;;;8.37;6.07;;;;;;;28.78;43.46;100114.97;5052549;28;20373;-75
2023/08/05 01:24:14;;;;;;;7.65;6.10;;;;;;;28.81;43.55;100099.91;5052569;28;20380;-75
2023/08/05 01:26:40;;;;;;;6.90;6.20;;;;;;;28.81;43.64;100111.63;5051552;28;20476;-75
2023/08/05 01:29:07;;;;;;;8.73;6.40;;;;;;;28.78;43.54;100110.31;5052413;28;20787;-75
2023/08/05 01:31:34;;;;;;;7.93;6.43;;;;;;;28.78;43.39;100107.59;5052603;28;20380;-75
2023/08/05 01:34:00;;;;;;;7.45;5.95;;;;;;;28.82;43.76;100107.78;5052208;28;20897;-75
2023/08/05 01:36:26;;;;;;;9.20;6.20;;;;;;;28.77;43.90;100107.88;5052047;28;20403;-75
2023/08/05 01:38:51;;;;;;;8.47;5.90;;;;;;;28.49;44.64;100107.13;5051941;28;20688;-75
2023/08/05 01:41:17;;;;;;;12.02;6.22;;;;;;;28.56;44.15;100105.63;5052052;28;20424;-75
2023/08/05 01:43:42;;;;;;;8.57;6.10;;;;;;;28.58;44.16;100099.84;5051036;28;20707;-77
2023/08/05 01:46:08;;;;;;;8.20;5.90;;;;;;;28.62;44.24;100100.06;5052099;28;20400;-74
2023/08/05 01:48:34;;;;;;;9.23;5.72;;;;;;;28.57;44.17;100096.31;5052575;28;20402;-75
2023/08/05 01:50:59;;;;;;;7.87;5.87;;;;;;;28.54;44.33;100109.75;5052218;28;20373;-75
2023/08/05 01:53:25;;;;;;;8.57;5.80;;;;;;;28.43;44.46;100106.41;5053484;28;20391;-74
2023/08/05 01:55:50;;;;;;;10.43;6.22;;;;;;;28.51;44.25;100110.34;5052316;28;20444;-75
2023/08/05 01:58:16;;;;;;;10.48;5.88;;;;;;;28.40;44.02;100107.81;5034137;28;20390;-75
2023/08/05 02:00:50;;;;;;;10.27;5.73;;;;;;;28.44;43.65;100099.84;5030795;28;20379;-74
2023/08/05 02:03:15;;;;;;;8.50;5.30;;;;;;;28.47;43.76;100107.41;5030403;28;20387;-74
2023/08/05 02:05:40;;;;;;;8.23;5.90;;;;;;;28.48;43.22;100108.22;5030501;28;20378;-74
2023/08/05 02:08:06;;;;;;;7.10;6.10;;;;;;;28.56;43.26;100113.00;5027925;28;20416;-73
2023/08/05 02:10:32;;;;;;;7.90;5.70;;;;;;;28.54;43.40;100116.03;5032308;28;20786;-74
2023/08/05 02:12:57;;;;;;;7.13;5.50;;;;;;;28.54;43.12;100118.75;5031533;28;20382;-74
2023/08/05 02:15:23;;;;;;;8.30;5.22;;;;;;;28.53;42.98;100117.13;5031266;28;20960;-74
2023/08/05 02:17:48;;;;;;;8.40;5.50;;;;;;;28.48;42.93;100127.31;5030478;28;20383;-74
2023/08/05 02:20:15;;;;;;;9.23;5.47;;;;;;;28.49;42.85;100132.47;5032130;28;20398;-74
2023/08/05 02:22:40;;;;;;;8.87;5.53;;;;;;;28.52;42.52;100137.31;5031734;28;20850;-74
2023/08/05 02:25:06;;;;;;;6.60;5.30;;;;;;;28.53;42.48;100144.41;5031734;28;20382;-75
2023/08/05 02:27:32;;;;;;;8.23;5.80;;;;;;;28.56;42.54;100141.06;5031547;28;20957;-74
2023/08/05 02:29:57;;;;;;;7.50;5.90;;;;;;;28.60;42.66;100141.25;5030955;28;20402;-75
2023/08/05 02:32:23;;;;;;;7.35;5.28;;;;;;;28.54;42.24;100150.66;5031543;28;20386;-75
2023/08/05 02:34:48;;;;;;;8.38;6.35;;;;;;;28.49;42.41;100154.28;5031212;28;20728;-75
2023/08/05 02:37:13;;;;;;;9.43;6.47;;;;;;;28.52;42.25;100159.13;5031656;28;20759;-76
2023/08/05 02:39:40;;;;;;;8.43;6.37;;;;;;;28.49;42.28;100161.66;5033922;28;20384;-75
2023/08/05 02:42:06;;;;;;;9.15;5.90;;;;;;;28.51;42.35;100156.69;5042078;28;20387;-75
2023/08/05 02:44:31;;;;;;;8.60;6.07;;;;;;;28.38;42.33;100161.84;5041503;28;20356;-75
2023/08/05 02:46:57;;;;;;;7.63;5.75;;;;;;;28.39;42.31;100157.19;5027796;28;20505;-75
2023/08/05 02:49:22;;;;;;;7.40;5.87;;;;;;;28.35;42.28;100151.53;5021749;28;20382;-75
2023/08/05 02:51:48;;;;;;;6.67;5.97;;;;;;;28.29;42.65;100160.94;5019245;28;20546;-75
2023/08/05 02:54:13;;;;;;;8.93;6.13;;;;;;;28.21;43.01;100159.69;5029730;28;20394;-75
2023/08/05 02:56:39;;;;;;;7.18;5.72;;;;;;;28.20;42.94;100165.47;5030673;28;20661;-75
2023/08/05 02:59:05;;;;;;;8.47;6.10;;;;;;;28.21;42.80;100158.91;5030226;28;20375;-75
2023/08/05 03:01:30;;;;;;;9.68;6.50;;;;;;;28.14;42.86;100166.66;5031721;28;20521;-75
2023/08/05 03:03:56;;;;;;;9.70;6.50;;;;;;;27.98;42.92;100166.97;5031531;28;20397;-75
2023/08/05 03:06:21;;;;;;;6.40;5.67;;;;;;;28.04;42.76;100162.22;5031554;28;20440;-75
2023/08/05 03:08:47;;;;;;;8.48;5.88;;;;;;;27.97;42.94;100175.44;5031773;28;20858;-74
2023/08/05 03:11:12;;;;;;;6.85;5.70;;;;;;;28.02;42.80;100180.78;5031608;28;20374;-75
2023/08/05 03:13:38;;;;;;;8.97;5.47;;;;;;;27.98;42.86;100185.22;5031022;28;20375;-75
2023/08/05 03:16:11;;;;;;;8.47;5.70;;;;;;;28.06;42.99;100189.19;5030981;28;20409;-75
2023/08/05 03:18:37;;;;;;;10.27;5.97;;;;;;;27.97;42.90;100191.78;5031000;28;20461;-75
2023/08/05 03:21:03;;;;;;;8.05;5.70;;;;;;;27.95;42.87;100194.00;5031264;28;20397;-75
2023/08/05 03:23:28;;;;;;;8.40;6.07;;;;;;;27.93;42.84;100194.28;5031360;28;20383;-75
2023/08/05 03:25:54;;;;;;;8.80;5.90;;;;;;;28.00;42.62;100204.78;5031265;28;20378;-76
2023/08/05 03:28:20;;;;;;;9.02;6.32;;;;;;;28.02;42.34;100211.56;5032592;28;20902;-75
2023/08/05 03:30:45;;;;;;;7.37;6.13;;;;;;;28.00;42.40;100211.06;5025103;28;20433;-75
2023/08/05 03:33:11;;;;;;;8.23;6.07;;;;;;;27.93;42.57;100223.44;5039550;28;20500;-75
2023/08/05 03:35:42;;;;;;;8.73;6.67;;;;;;;27.90;42.27;100218.56;5020261;28;20490;-75
2023/08/05 03:38:08;;;;;;;11.32;6.63;;;;;;;27.97;42.22;100227.19;5029863;28;20452;-75
2023/08/05 03:40:33;;;;;;;7.47;6.67;;;;;;;27.94;42.22;100223.13;5031749;28;20766;-75
2023/08/05 03:42:59;;;;;;;11.10;7.28;;;;;;;27.96;42.12;100239.19;5032158;28;20378;-75
2023/08/05 03:45:24;;;;;;;9.88;6.85;;;;;;;27.94;42.24;100234.03;5030898;28;20424;-74
2023/08/05 03:47:51;;;;;;;8.77;7.37;;;;;;;27.92;42.35;100233.53;5030728;28;20370;-76
2023/08/05 03:50:17;;;;;;;10.95;7.45;;;;;;;27.94;42.11;100227.78;5030712;28;20464;-75
2023/08/05 03:52:43;;;;;;;10.68;7.82;;;;;;;28.04;41.69;100235.78;5030730;28;20885;-76
2023/08/05 03:55:09;;;;;;;9.57;7.40;;;;;;;27.95;41.99;100234.88;5030682;28;20489;-76
2023/08/05 03:57:34;;;;;;;11.13;7.13;;;;;;;27.93;42.26;100226.97;5031115;28;20398;-74
2023/08/05 04:00:00;;;;;;;8.57;6.67;;;;;;;27.82;41.90;100236.38;5032744;28;20382;-75
2023/08/05 04:02:26;;;;;;;9.95;7.07;;;;;;;27.78;42.01;100232.63;5029395;28;20410;-74
2023/08/05 04:04:52;;;;;;;8.38;6.82;;;;;;;27.88;41.87;100237.13;5030520;28;20386;-76
2023/08/05 04:07:19;;;;;;;10.53;6.90;;;;;;;27.84;41.87;100232.28;5029058;28;20397;-75
2023/08/05 04:09:45;;;;;;;10.23;6.97;;;;;;;27.84;42.29;100229.53;5029738;28;20870;-75
2023/08/05 04:12:13;;;;;;;11.43;7.20;;;;;;;27.88;42.00;100234.41;5037368;28;20406;-76
2023/08/05 04:14:38;;;;;;;8.65;7.07;;;;;;;27.88;42.13;100240.66;5030698;28;20410;-75
2023/08/05 04:17:04;;;;;;;8.70;7.05;;;;;;;27.94;42.30;100239.47;5030861;28;20623;-75
2023/08/05 04:19:30;;;;;;;8.00;7.20;;;;;;;27.98;42.10;100250.59;5030937;28;20371;-76
2023/08/05 04:21:55;;;;;;;9.00;7.13;;;;;;;27.91;42.44;100234.66;5030790;28;20855;-75
2023/08/05 04:24:24;;;;;;;7.68;6.03;;;;;;;27.93;42.12;100237.88;5030683;28;20726;-76
2023/08/05 04:26:50;;;;;;;9.43;6.60;;;;;;;27.92;42.14;100236.25;5030312;28;20855;-75
2023/08/05 04:29:18;;;;;;;6.65;5.80;;;;;;;27.87;42.08;100232.78;5030496;28;20445;-76
2023/08/05 04:31:44;;;;;;;7.88;5.75;;;;;;;27.84;42.28;100237.72;5031201;28;20398;-75
2023/08/05 04:34:10;;;;;;;7.97;5.47;;;;;;;27.96;41.89;100237.25;5034125;28;20532;-75
2023/08/05 04:36:35;;;;;;;7.77;5.87;;;;;;;28.14;41.99;100248.41;5034004;28;20843;-75
2023/08/05 04:39:03;;;;;;;8.10;5.50;;;;;;;28.12;41.65;100251.44;5033717;28;20401;-75
2023/08/05 04:41:29;;;;;;;6.60;5.68;;;;;;;28.17;41.55;100250.56;5034235;28;20378;-74
2023/08/05 04:43:54;;;;;;;8.50;5.10;;;;;;;28.17;41.92;100256.00;5033459;28;20485;-74
2023/08/05 04:46:20;;;;;;;6.50;5.03;;;;;;;28.15;41.79;100241.88;5031954;28;20874;-75
2023/08/05 04:48:45;;;;;;;8.10;5.40;;;;;;;28.19;41.78;100246.41;5032623;28;20395;-75
2023/08/05 04:51:11;;;;;;;7.53;4.80;;;;;;;28.15;41.87;100245.41;5033012;28;20386;-75
2023/08/05 04:53:36;;;;;;;5.77;4.87;;;;;;;28.14;41.87;100251.16;5034956;28;20391;-75
2023/08/05 04:56:02;;;;;;;7.88;4.20;;;;;;;28.12;41.54;100251.44;5041140;28;20909;-75
2023/08/05 04:58:27;;;;;;;7.10;4.57;;;;;;;28.23;41.34;100257.53;5043365;28;20423;-75
2023/08/05 05:00:56;;;;;;;6.43;4.53;;;;;;;28.36;40.94;100262.22;5043993;28;20451;-75
2023/08/05 05:03:22;;;;;;;8.07;4.22;;;;;;;28.56;40.94;100262.97;5032389;28;20921;-75
2023/08/05 05:05:47;;;;;;;10.15;4.35;;;;;;;28.73;40.58;100260.44;5032126;28;20457;-75
2023/08/05 05:08:13;;;;;;;6.57;4.10;;;;;;;28.64;40.06;100256.00;5031370;28;20477;-75
2023/08/05 05:10:38;;;;;;;5.47;3.80;;;;;;;28.65;39.95;100266.59;5032151;28;20446;-75
2023/08/05 05:13:04;;;;;;;7.67;4.17;;;;;;;28.59;39.68;100268.63;5032644;28;20414;-76
2023/08/05 05:15:29;;;;;;;5.28;4.00;;;;;;;28.76;39.65;100278.94;5032181;28;20437;-74
2023/08/05 05:17:55;;;;;;;6.18;3.88;;;;;;;28.78;39.39;100267.72;5032238;28;20404;-75
2023/08/05 05:20:20;;;;;;;9.33;4.30;;;;;;;28.87;38.91;100268.63;5032826;28;20379;-75
2023/08/05 05:22:46;;;;;;;6.97;4.00;;;;;;;29.05;38.95;100282.47;5033165;28;20386;-75
2023/08/05 05:25:11;;;;;;;5.10;3.97;;;;;;;29.22;38.68;100293.56;5032773;28;20378;-75
2023/08/05 05:27:37;;;;;;;8.35;4.10;;;;;;;29.28;38.54;100292.38;5032693;28;20390;-75
2023/08/05 05:30:03;;;;;;;6.17;3.90;;;;;;;29.25;38.29;100289.44;5033045;28;20414;-75
2023/08/05 05:32:28;;;;;;;5.32;3.90;;;;;;;29.19;37.98;100277.84;5034327;28;20401;-75
2023/08/05 05:34:54;;;;;;;6.20;3.83;;;;;;;29.04;37.46;100275.38;5032330;28;20398;-75
2023/08/05 05:37:19;;;;;;;6.77;3.77;;;;;;;28.93;37.57;100282.97;5032535;28;20387;-76
2023/08/05 05:39:45;;;;;;;7.33;3.50;;;;;;;28.91;37.67;100287.94;5033153;28;20440;-75
2023/08/05 05:42:11;;;;;;;5.50;3.60;;;;;;;28.71;37.88;100279.03;5033535;28;20386;-75
2023/08/05 05:44:38;;;;;;;4.90;3.90;;;;;;;28.73;37.93;100279.53;5032220;28;20462;-76
2023/08/05 05:47:07;;;;;;;5.10;3.53;;;;;;;28.70;37.37;100287.50;5032929;28;20801;-75
2023/08/05 05:49:32;;;;;;;5.47;3.30;;;;;;;28.76;37.75;100286.31;5035798;28;20382;-75
2023/08/05 05:51:58;;;;;;;7.40;3.23;;;;;;;28.76;37.84;100283.59;5032764;28;20389;-75
2023/08/05 05:54:23;;;;;;;5.85;3.58;;;;;;;28.78;37.85;100284.09;5032292;28;20826;-75
2023/08/05 05:56:49;;;;;;;3.72;3.17;;;;;;;28.85;37.62;100292.69;5032517;28;20438;-76
2023/08/05 05:59:14;;;;;;;4.27;3.40;;;;;;;28.98;37.93;100288.31;5032099;28;20828;-75
2023/08/05 06:01:40;;;;;;;4.37;3.43;;;;;;;29.09;37.73;100280.75;5032213;28;20454;-76
2023/08/05 06:04:09;;;;;;;5.53;3.20;;;;;;;29.21;37.45;100269.31;5031962;28;20366;-74
2023/08/05 06:06:35;;;;;;;4.40;2.88;;;;;;;29.14;37.48;100258.81;5032129;28;20882;-75
2023/08/05 06:09:02;;;;;;;4.10;3.25;;;;;;;29.19;37.66;100266.09;5032579;28;20456;-76
2023/08/05 06:11:31;;;;;;;4.72;3.13;;;;;;;29.13;37.26;100271.63;5031930;28;20379;-75
2023/08/05 06:14:15;;;;;;;6.30;3.42;;;;;;;29.08;37.38;100271.75;5032754;28;20386;-75
2023/08/05 06:16:40;;;;;;;4.20;3.10;;;;;;;29.07;37.63;100266.59;5031848;28;20394;-75
2023/08/05 06:19:06;;;;;;;5.97;3.37;;;;;;;29.16;37.65;100256.59;5031756;28;20383;-76
2023/08/05 06:21:31;;;;;;;5.60;2.90;;;;;;;29.34;37.26;100255.63;5030728;28;20421;-74
2023/08/05 06:23:57;;;;;;;4.07;3.00;;;;;;;29.39;37.37;100243.81;5032139;28;20863;-76
2023/08/05 06:26:22;;;;;;;3.67;2.77;;;;;;;29.65;37.38;100244.00;5031639;28;20794;-76
2023/08/05 06:28:49;;;;;;;7.70;3.28;;;;;;;29.70;37.04;100243.09;5031677;28;20500;-75
2023/08/05 06:31:14;;;;;;;6.50;3.00;;;;;;;29.67;36.57;100230.03;5030420;28;20790;-75
2023/08/05 06:33:40;;;;;;;7.82;3.20;;;;;;;29.72;36.98;100238.13;5031640;28;20454;-77
2023/08/05 06:36:05;;;;;;;6.07;2.90;;;;;;;29.81;37.06;100230.00;5031455;28;20394;-75
2023/08/05 06:38:31;;;;;;;6.23;3.73;;;;;;;29.95;36.77;100228.03;5025047;28;20411;-77
2023/08/05 06:40:56;;;;;;;6.07;3.30;;;;;;;30.17;36.55;100240.84;5022418;28;20441;-75
2023/08/05 06:43:22;;;;;;;6.27;3.00;;;;;;;30.21;35.93;100252.75;5022650;28;20398;-75
2023/08/05 06:45:47;;;;;;;4.55;2.70;;;;;;;30.19;36.33;100248.72;5021288;28;20401;-76
2023/08/05 06:48:13;;;;;;;5.75;3.05;;;;;;;30.31;35.86;100243.50;5022957;28;20734;-75
2023/08/05 06:50:38;;;;;;;3.07;2.77;;;;;;;30.34;35.98;100240.13;5017056;28;20477;-76
2023/08/05 06:53:04;;;;;;;6.00;2.70;;;;;;;30.64;35.71;100233.03;5022114;28;20402;-76
2023/08/05 06:55:29;;;;;;;6.50;3.07;;;;;;;30.84;35.59;100236.31;5020424;28;20566;-77
2023/08/05 06:57:55;;;;;;;8.02;3.38;;;;;;;30.92;35.08;100230.09;5020760;28;20398;-76
2023/08/05 07:00:20;;;;;;;6.00;3.07;;;;;;;31.00;34.97;100229.28;5020453;28;20420;-75
2023/08/05 07:02:46;;;;;;;6.33;2.90;;;;;;;30.96;34.84;100235.72;5030577;28;20390;-75
2023/08/05 07:05:11;;;;;;;4.77;2.90;;;;;;;30.80;34.80;100219.72;5028795;28;20370;-76
2023/08/05 07:07:37;;;;;;;4.20;3.20;;;;;;;30.92;34.80;100235.56;5031454;28;20490;-76
2023/08/05 07:10:07;;;;;;;6.18;2.97;;;;;;;30.94;34.37;100219.63;5031225;28;20564;-77
2023/08/05 07:12:34;;;;;;;5.18;2.83;;;;;;;31.07;34.73;100209.66;5031288;28;20379;-74
2023/08/05 07:14:59;;;;;;;6.13;2.95;;;;;;;31.19;34.17;100211.78;5030032;28;20471;-75
2023/08/05 07:17:25;;;;;;;5.53;3.00;;;;;;;31.15;35.02;100208.88;5031266;28;20379;-75
2023/08/05 07:19:51;;;;;;;6.20;2.73;;;;;;;31.31;34.80;100211.13;5031603;28;20676;-76
2023/08/05 07:22:16;;;;;;;5.13;3.10;;;;;;;31.54;34.49;100204.38;5032226;28;20374;-74
2023/08/05 07:24:42;;;;;;;3.87;2.90;;;;;;;31.63;33.91;100212.56;5034123;28;20399;-75
2023/08/05 07:27:07;;;;;;;9.60;3.10;;;;;;;31.83;34.36;100219.31;5032595;28;20371;-76
2023/08/05 07:29:33;;;;;;;6.77;3.30;;;;;;;31.73;33.94;100200.47;5031170;28;20391;-76
2023/08/05 07:31:58;;;;;;;6.83;3.00;;;;;;;31.83;34.34;100194.66;5030928;28;20381;-75
2023/08/05 07:34:30;;;;;;;3.92;3.13;;;;;;;31.90;33.79;100199.63;5030375;28;20406;-74
2023/08/05 07:36:55;;;;;;;6.03;3.00;;;;;;;31.75;33.60;100187.25;5031303;28;20383;-76
2023/08/05 07:39:22;;;;;;;4.95;3.20;;;;;;;31.79;33.50;100180.78;5031270;28;20850;-76
2023/08/05 07:41:49;;;;;;;5.15;2.97;;;;;;;31.77;33.53;100191.28;5032184;28;20906;-75
2023/08/05 07:44:15;;;;;;;7.43;3.10;;;;;;;31.75;33.55;100177.09;5032020;28;20382;-75
2023/08/05 07:46:41;;;;;;;4.32;2.97;;;;;;;31.96;34.22;100190.91;5030831;28;20374;-75
2023/08/05 07:49:07;;;;;;;4.70;2.80;;;;;;;31.95;33.20;100193.97;5030911;28;20378;-76
2023/08/05 07:51:32;;;;;;;3.70;3.40;;;;;;;32.06;33.52;100188.97;5031411;28;20723;-76
2023/08/05 07:53:58;;;;;;;6.28;3.00;;;;;;;32.22;33.56;100203.75;5031023;28;20375;-74
2023/08/05 07:56:24;;;;;;;5.53;3.00;;;;;;;32.13;33.63;100192.81;5031968;28;20383;-76
2023/08/05 07:58:49;;;;;;;6.03;3.15;;;;;;;32.08;33.76;100189.44;5031387;28;20550;-75
2023/08/05 08:01:21;;;;;;;4.83;3.20;;;;;;;32.07;33.41;100179.59;5031063;28;20481;-76
2023/08/05 08:03:48;;;;;;;6.57;3.00;;;;;;;32.16;33.59;100192.16;5030254;28;20386;-75
2023/08/05 08:06:15;;;;;;;6.72;3.03;;;;;;;32.09;33.38;100194.63;5031441;28;20370;-75
2023/08/05 08:08:44;;;;;;;6.72;3.17;;;;;;;32.05;33.58;100190.91;5034556;28;20397;-76
2023/08/05 08:11:10;;;;;;;6.28;3.40;;;;;;;32.00;33.54;100180.91;5033432;28;20378;-75
2023/08/05 08:13:36;;;;;;;6.60;3.13;;;;;;;32.14;33.50;100188.13;5034431;28;20436;-76
2023/08/05 08:16:02;;;;;;;3.70;2.90;;;;;;;32.19;34.00;100187.94;5034528;28;20401;-76
2023/08/05 08:18:27;;;;;;;4.80;3.30;;;;;;;32.25;33.70;100185.81;5034202;28;20661;-76
2023/08/05 08:20:53;;;;;;;5.60;3.03;;;;;;;32.26;33.46;100188.25;5033868;28;20370;-74
2023/08/05 08:23:18;;;;;;;3.80;3.40;;;;;;;32.09;33.51;100196.53;5033969;28;20441;-75
2023/08/05 08:25:44;;;;;;;4.30;3.20;;;;;;;32.15;33.54;100196.03;5033929;28;20389;-76
2023/08/05 08:28:09;;;;;;;4.45;3.10;;;;;;;32.25;33.51;100197.63;5034106;28;20781;-75
2023/08/05 08:30:35;;;;;;;6.78;3.17;;;;;;;32.59;33.64;100184.88;5033796;28;20402;-76
2023/08/05 08:33:00;;;;;;;3.45;3.15;;;;;;;32.66;33.10;100181.63;5033594;28;20374;-74
2023/08/05 08:35:25;;;;;;;5.05;3.40;;;;;;;32.65;33.35;100183.56;5034299;28;20405;-75
2023/08/05 08:37:51;;;;;;;4.97;3.08;;;;;;;32.82;33.21;100184.59;5033737;28;21626;-75
2023/08/05 08:40:17;;;;;;;4.85;3.40;;;;;;;32.67;33.24;100183.25;5033466;28;21002;-74
2023/08/05 08:42:43;;;;;;;6.63;3.50;;;;;;;32.69;33.41;100178.22;5033669;28;20405;-75
2023/08/05 08:45:13;;;;;;;5.83;3.40;;;;;;;32.79;33.10;100180.59;5032972;28;20720;-76
2023/08/05 08:47:38;;;;;;;4.50;3.30;;;;;;;32.88;33.09;100181.31;5032730;28;20452;-76
2023/08/05 08:50:05;;;;;;;6.57;3.67;;;;;;;33.03;33.35;100184.63;5032966;28;20402;-74
2023/08/05 08:52:32;;;;;;;24.23;10.27;;;;;;;32.87;32.85;100171.47;5033514;28;20387;-76
2023/08/05 08:54:58;;;;;;;4.80;3.20;;;;;;;32.81;33.30;100181.06;5032677;28;20895;-74
2023/08/05 08:57:23;;;;;;;5.47;3.50;;;;;;;32.89;33.32;100187.63;5033745;28;20387;-75
2023/08/05 08:59:49;;;;;;;4.15;3.38;;;;;;;33.03;33.21;100174.44;5032385;28;20398;-75
2023/08/05 09:02:23;;;;;;;5.03;3.25;;;;;;;32.99;33.30;100191.88;5032316;28;20465;-76
2023/08/05 09:04:51;;;;;;;5.90;3.47;;;;;;;32.99;33.20;100183.66;5033828;28;20524;-75
2023/08/05 09:07:17;;;;;;;6.22;3.10;;;;;;;33.07;32.90;100171.81;5033490;28;20385;-75
2023/08/05 09:09:46;;;;;;;4.80;3.33;;;;;;;33.03;33.03;100162.66;5033016;28;20457;-75
2023/08/05 09:12:14;;;;;;;6.18;3.28;;;;;;;32.88;33.46;100173.09;5033331;28;20374;-76
2023/08/05 09:14:39;;;;;;;7.65;3.58;;;;;;;32.90;33.44;100167.25;5032862;28;20464;-75
2023/08/05 09:17:06;;;;;;;5.05;3.45;;;;;;;33.07;33.08;100158.88;5034945;28;20382;-77
2023/08/05 09:19:31;;;;;;;5.30;3.33;;;;;;;33.33;32.93;100158.69;5034509;28;20866;-76
2023/08/05 09:22:00;;;;;;;5.55;3.42;;;;;;;33.41;32.96;100147.97;5033039;28;20421;-76
2023/08/05 09:24:26;;;;;;;5.07;3.40;;;;;;;33.25;33.10;100165.06;5033452;28;20407;-76
2023/08/05 09:26:59;;;;;;;4.70;3.28;;;;;;;33.39;33.11;100158.50;5032930;28;20379;-76
2023/08/05 09:29:26;;;;;;;5.73;3.30;;;;;;;33.25;32.99;100147.78;5032802;28;20902;-76
2023/08/05 09:32:02;;;;;;;4.20;3.42;;;;;;;33.20;33.29;100140.53;5033425;28;20387;-75
2023/08/05 09:34:32;;;;;;;4.50;3.28;;;;;;;33.32;32.99;100140.59;5033289;28;20422;-75
2023/08/05 09:36:59;;;;;;;4.13;3.03;;;;;;;33.38;32.96;100145.88;5035409;28;20768;-76
2023/08/05 09:39:25;;;;;;;5.28;3.22;;;;;;;33.43;33.05;100132.72;5032568;28;20382;-75
2023/08/05 09:41:53;;;;;;;5.40;3.65;;;;;;;33.33;32.77;100127.66;5032518;28;20388;-76
2023/08/05 09:44:19;;;;;;;5.00;3.22;;;;;;;33.29;33.10;100129.47;5032385;28;20409;-77
2023/08/05 09:46:46;;;;;;;5.87;3.60;;;;;;;33.16;33.00;100127.84;5032512;28;20410;-76
2023/08/05 09:49:14;;;;;;;4.47;3.47;;;;;;;33.16;32.86;100111.34;5031636;28;20375;-75
2023/08/05 09:51:42;;;;;;;4.25;3.22;;;;;;;33.39;32.87;100109.03;5032951;28;20386;-75
2023/08/05 09:54:23;;;;;;;5.72;3.22;;;;;;;33.20;32.93;100117.78;5032685;28;20416;-74
2023/08/05 09:56:49;;;;;;;3.30;2.90;;;;;;;33.26;32.61;100095.25;5032543;28;20382;-77
2023/08/05 09:59:16;;;;;;;3.87;3.30;;;;;;;33.53;32.65;100109.53;5032131;28;20386;-75
2023/08/05 10:01:42;;;;;;;7.07;3.23;;;;;;;33.66;32.22;100102.16;5032514;28;20381;-76
2023/08/05 10:04:09;;;;;;;7.45;3.20;;;;;;;33.61;32.33;100100.38;5032691;28;20458;-76
2023/08/05 10:06:38;;;;;;;6.68;3.67;;;;;;;33.75;32.46;100093.81;5030773;28;20421;-76
2023/08/05 10:09:04;;;;;;;4.90;3.23;;;;;;;33.88;32.28;100082.44;5026584;28;20515;-75
2023/08/05 10:11:30;;;;;;;6.35;3.28;;;;;;;33.88;32.32;100089.91;5042293;28;20394;-76
2023/08/05 10:13:56;;;;;;;5.25;3.17;;;;;;;33.73;32.49;100080.41;5023432;28;20444;-76
2023/08/05 10:16:24;;;;;;;4.10;3.17;;;;;;;33.92;32.14;100057.03;5023980;28;20422;-75
2023/08/05 10:18:49;;;;;;;8.02;3.33;;;;;;;33.94;32.30;100061.03;5025977;28;20416;-75
2023/08/05 10:21:37;;;;;;;8.33;3.43;;;;;;;33.99;32.41;100082.78;5023171;28;20748;-75
2023/08/05 10:24:03;;;;;;;7.88;2.90;;;;;;;34.08;32.31;100077.19;5028637;28;20461;-75
2023/08/05 10:26:43;;;;;;;4.40;3.10;;;;;;;34.08;32.56;100074.44;5025206;28;20539;-75
2023/08/05 10:29:29;;;;;;;5.78;3.20;;;;;;;34.31;32.23;100079.50;5025235;28;20423;-75
2023/08/05 10:32:09;;;;;;;7.03;3.15;;;;;;;34.22;31.89;100082.38;5024589;28;20412;-75
2023/08/05 10:34:35;;;;;;;7.18;3.22;;;;;;;34.07;32.15;100097.59;5049448;28;20419;-76
2023/08/05 10:37:01;;;;;;;7.25;3.40;;;;;;;34.27;32.25;100077.44;5048495;28;20877;-75
2023/08/05 10:39:40;;;;;;;4.10;3.47;;;;;;;34.44;32.10;100068.09;5051498;28;20381;-76
2023/08/05 10:42:27;;;;;;;4.47;3.33;;;;;;;34.41;31.78;100066.06;5051791;28;20381;-75
2023/08/05 10:44:58;;;;;;;5.32;3.20;;;;;;;34.33;31.95;100066.19;5050328;28;20455;-75
2023/08/05 10:47:24;;;;;;;7.13;3.40;;;;;;;34.05;32.55;100070.44;5051009;28;20388;-74
2023/08/05 10:49:57;;;;;;;6.53;3.40;;;;;;;34.29;32.40;100057.81;5050959;28;20377;-75
2023/08/05 10:52:23;;;;;;;6.30;3.33;;;;;;;34.51;32.27;100053.75;5051001;28;20462;-73
2023/08/05 10:54:49;;;;;;;8.10;3.50;;;;;;;34.40;31.99;100058.94;5051027;28;20491;-75
2023/08/05 10:57:38;;;;;;;5.53;3.30;;;;;;;34.22;32.21;100057.59;5051139;28;20381;-75
2023/08/05 11:00:07;;;;;;;8.65;3.40;;;;;;;34.47;32.23;100048.16;5049667;28;20538;-75
2023/08/05 11:02:32;;;;;;;5.43;3.20;;;;;;;34.66;31.49;100046.72;5050887;28;20385;-75
2023/08/05 11:05:08;;;;;;;4.88;3.40;;;;;;;34.80;31.66;100043.59;5050855;28;20445;-75
2023/08/05 11:07:36;;;;;;;6.82;3.58;;;;;;;34.77;31.63;100036.84;5050581;28;20377;-76
2023/08/05 11:10:04;;;;;;;5.72;3.13;;;;;;;34.86;31.39;100039.44;5050809;28;20443;-76
2023/08/05 11:12:30;;;;;;;7.05;3.45;;;;;;;34.82;31.43;100044.03;5052204;28;20373;-75
2023/08/05 11:14:56;;;;;;;3.60;3.10;;;;;;;34.89;31.14;100040.69;5050889;28;20412;-76
2023/08/05 11:17:22;;;;;;;4.13;3.00;;;;;;;34.91;31.11;100036.44;5051335;28;20856;-75
2023/08/05 11:19:52;;;;;;;4.43;3.33;;;;;;;34.96;31.34;100038.16;5051211;28;20381;-74
2023/08/05 11:22:26;;;;;;;8.30;3.15;;;;;;;35.09;31.10;100030.63;5052860;28;20412;-74